Time;durP1;ratioP1;P1;durP2;ratioP2;P2;SDS_P1;SDS_P2;PMS_P1;PMS_P2;Temp;Humidity;BMP_temperature;BMP_pressure;BME280_temperature;BME280_humidity;BME280_pressure;Samples;Min_cycle;Max_cycle;Signal;HPM_P1;HPM_P2
2022/02/18 00:01:07;;;;;;;;;;;;;;;5.56;100.00;100786.00;2568867;30;136689;-40
2022/02/18 00:03:37;;;;;;;;;;;;;;;5.55;100.00;100777.03;2567386;30;138196;-40
2022/02/18 00:06:06;;;;;;;;;;;;;;;5.51;100.00;100775.72;2568537;30;137009;-40
2022/02/18 00:08:35;;;;;;;;;;;;;;;5.50;100.00;100774.03;2567598;30;137406;-40
2022/02/18 00:11:05;;;;;;;;;;;;;;;5.49;100.00;100766.94;2568255;30;136995;-40
2022/02/18 00:13:34;;;;;;;;;;;;;;;5.47;100.00;100767.13;2568245;30;138293;-41
2022/02/18 00:16:03;;;;;;;;;;;;;;;5.54;100.00;100761.81;2567932;30;137820;-40
2022/02/18 00:18:30;;;;;;;;;;;;;;;5.56;100.00;100764.34;2567866;30;139372;-40
2022/02/18 00:20:58;;;;;;;;;;;;;;;5.55;100.00;100760.78;2566233;30;137215;-40
2022/02/18 00:23:26;;;;;;;;;;;;;;;5.50;100.00;100755.09;2567321;30;140020;-40
2022/02/18 00:25:54;;;;;;;;;;;;;;;5.49;100.00;100758.00;2568283;30;136945;-40
2022/02/18 00:28:22;;;;;;;;;;;;;;;5.52;100.00;100757.63;2570029;30;138441;-41
2022/02/18 00:30:50;;;;;;;;;;;;;;;5.44;100.00;100767.50;2569641;30;137088;-40
2022/02/18 00:33:21;;;;;;;;;;;;;;;5.49;100.00;100768.81;2569057;30;137191;-40
2022/02/18 00:35:49;;;;;;;;;;;;;;;5.50;100.00;100773.22;2565551;30;139467;-40
2022/02/18 00:38:17;;;;;;;;;;;;;;;5.48;100.00;100778.78;2567591;30;137733;-40
2022/02/18 00:40:45;;;;;;;;;;;;;;;5.47;100.00;100780.66;2569132;30;137427;-40
2022/02/18 00:43:14;;;;;;;;;;;;;;;5.47;100.00;100775.25;2568710;30;139111;-41
2022/02/18 00:45:42;;;;;;;;;;;;;;;5.54;100.00;100778.06;2568277;30;137686;-40
2022/02/18 00:48:11;;;;;;;;;;;;;;;5.55;100.00;100770.78;2569322;30;138484;-41
2022/02/18 00:50:42;;;;;;;;;;;;;;;5.51;100.00;100773.00;2568590;30;138564;-41
2022/02/18 00:53:11;;;;;;;;;;;;;;;5.57;100.00;100772.31;2568318;30;138277;-40
2022/02/18 00:55:39;;;;;;;;;;;;;;;5.53;100.00;100762.00;2566048;30;136824;-40
2022/02/18 00:58:06;;;;;;;;;;;;;;;5.60;100.00;100771.09;2568616;30;138462;-40
2022/02/18 01:00:34;;;;;;;;;;;;;;;5.54;100.00;100764.53;2568324;30;138004;-41
2022/02/18 01:03:02;;;;;;;;;;;;;;;5.51;100.00;100762.19;2567952;30;139563;-41
2022/02/18 01:05:30;;;;;;;;;;;;;;;5.45;100.00;100752.09;2564882;30;138020;-40
2022/02/18 01:07:59;;;;;;;;;;;;;;;5.48;100.00;100746.31;2568155;30;139261;-41
2022/02/18 01:10:27;;;;;;;;;;;;;;;5.50;100.00;100743.44;2568812;30;138049;-41
2022/02/18 01:12:55;;;;;;;;;;;;;;;5.46;100.00;100734.81;2568860;30;138520;-41
2022/02/18 01:15:23;;;;;;;;;;;;;;;5.38;100.00;100743.00;2566246;30;138711;-40
2022/02/18 01:17:51;;;;;;;;;;;;;;;5.33;100.00;100739.00;2570118;30;138397;-39
2022/02/18 01:20:22;;;;;;;;;;;;;;;5.30;100.00;100738.50;2571410;30;137077;-39
2022/02/18 01:22:50;;;;;;;;;;;;;;;5.27;100.00;100728.88;2570207;30;137650;-39
2022/02/18 01:25:18;;;;;;;;;;;;;;;5.24;100.00;100718.41;2568483;30;136861;-39
2022/02/18 01:27:46;;;;;;;;;;;;;;;5.24;100.00;100715.72;2570375;30;137472;-39
2022/02/18 01:30:14;;;;;;;;;;;;;;;5.22;100.00;100714.22;2569034;30;137077;-39
2022/02/18 01:32:42;;;;;;;;;;;;;;;5.21;100.00;100704.41;2569062;30;138873;-38
2022/02/18 01:35:10;;;;;;;;;;;;;;;5.18;100.00;100686.69;2570648;30;137410;-39
2022/02/18 01:37:38;;;;;;;;;;;;;;;5.17;100.00;100690.41;2571355;30;138270;-39
2022/02/18 01:40:07;;;;;;;;;;;;;;;5.16;100.00;100694.13;2571061;30;138049;-39
2022/02/18 01:42:37;;;;;;;;;;;;;;;5.19;100.00;100691.06;2567609;30;139472;-39
2022/02/18 01:45:05;;;;;;;;;;;;;;;5.20;100.00;100689.22;2570665;30;139247;-39
2022/02/18 01:47:33;;;;;;;;;;;;;;;5.16;100.00;100678.72;2568169;30;140334;-39
2022/02/18 01:50:01;;;;;;;;;;;;;;;5.12;100.00;100674.72;2568844;30;138800;-39
2022/02/18 01:52:31;;;;;;;;;;;;;;;5.17;100.00;100660.66;2570348;30;138370;-39
2022/02/18 01:54:59;;;;;;;;;;;;;;;5.18;100.00;100643.41;2571310;30;139157;-39
2022/02/18 01:57:28;;;;;;;;;;;;;;;5.18;100.00;100655.06;2569683;30;140079;-39
2022/02/18 01:59:58;;;;;;;;;;;;;;;5.17;100.00;100666.06;2566561;30;138359;-39
2022/02/18 02:02:26;;;;;;;;;;;;;;;5.25;100.00;100662.47;2572562;30;138219;-39
2022/02/18 02:04:54;;;;;;;;;;;;;;;5.38;100.00;100667.25;2567437;30;137442;-39
2022/02/18 02:07:23;;;;;;;;;;;;;;;5.38;100.00;100664.56;2570640;30;138329;-39
2022/02/18 02:09:53;;;;;;;;;;;;;;;5.36;100.00;100667.44;2568343;30;137525;-39
2022/02/18 02:12:21;;;;;;;;;;;;;;;5.31;100.00;100667.13;2568904;30;138456;-39
2022/02/18 02:14:53;;;;;;;;;;;;;;;5.26;100.00;100658.72;2568887;30;138389;-39
2022/02/18 02:17:26;;;;;;;;;;;;;;;5.30;100.00;100654.63;2568182;30;139875;-39
2022/02/18 02:19:54;;;;;;;;;;;;;;;5.26;100.00;100651.44;2570351;30;137246;-39
2022/02/18 02:22:24;;;;;;;;;;;;;;;5.28;100.00;100652.09;2569400;30;140112;-39
2022/02/18 02:24:52;;;;;;;;;;;;;;;5.27;100.00;100653.13;2568988;30;138904;-39
2022/02/18 02:27:22;;;;;;;;;;;;;;;5.27;100.00;100652.28;2570252;30;137380;-39
2022/02/18 02:29:51;;;;;;;;;;;;;;;5.29;100.00;100634.00;2570876;30;139465;-39
2022/02/18 02:32:20;;;;;;;;;;;;;;;5.30;100.00;100633.84;2569391;30;139250;-39
2022/02/18 02:34:48;;;;;;;;;;;;;;;5.30;100.00;100633.84;2570090;30;137730;-39
2022/02/18 02:37:16;;;;;;;;;;;;;;;5.30;100.00;100625.72;2569747;30;138200;-39
2022/02/18 02:39:44;;;;;;;;;;;;;;;5.27;100.00;100625.25;2569438;30;138256;-39
2022/02/18 02:42:16;;;;;;;;;;;;;;;5.23;100.00;100613.94;2569792;30;139496;-39
2022/02/18 02:44:50;;;;;;;;;;;;;;;5.26;100.00;100602.75;2567945;30;136678;-39
2022/02/18 02:47:20;;;;;;;;;;;;;;;5.26;100.00;100591.94;2569718;30;138224;-39
2022/02/18 02:49:49;;;;;;;;;;;;;;;5.26;100.00;100604.63;2568726;30;138153;-39
2022/02/18 02:52:17;;;;;;;;;;;;;;;5.30;100.00;100598.69;2570225;30;141027;-41
2022/02/18 02:54:46;;;;;;;;;;;;;;;5.33;100.00;100587.50;2570091;30;138488;-39
2022/02/18 02:57:14;;;;;;;;;;;;;;;5.35;100.00;100591.88;2568460;30;139072;-39
2022/02/18 02:59:54;;;;;;;;;;;;;;;5.37;100.00;100587.94;2570636;30;138043;-39
2022/02/18 03:02:22;;;;;;;;;;;;;;;5.44;100.00;100582.63;2569144;30;139995;-39
2022/02/18 03:04:51;;;;;;;;;;;;;;;5.45;100.00;100585.19;2567020;30;139823;-38
2022/02/18 03:07:19;;;;;;;;;;;;;;;5.62;100.00;100574.16;2566440;30;140441;-39
2022/02/18 03:09:57;;;;;;;;;;;;;;;5.59;100.00;100566.41;2568359;30;137124;-39
2022/02/18 03:12:26;;;;;;;;;;;;;;;5.54;100.00;100558.03;2566984;30;138220;-39
2022/02/18 03:15:05;;;;;;;;;;;;;;;5.56;100.00;100547.84;2572598;30;137754;-39
2022/02/18 03:17:35;;;;;;;;;;;;;;;5.58;100.00;100538.53;2568975;30;140970;-39
2022/02/18 03:20:38;;;;;;;;;;;;;;;5.55;100.00;100535.34;2570800;30;136856;-39
2022/02/18 03:23:05;;;;;;;;;;;;;;;5.55;100.00;100530.75;2568577;30;139203;-39
2022/02/18 03:25:33;;;;;;;;;;;;;;;5.55;100.00;100519.94;2569000;30;139066;-39
2022/02/18 03:28:01;;;;;;;;;;;;;;;5.52;100.00;100514.06;2569814;30;139810;-39
2022/02/18 03:30:32;;;;;;;;;;;;;;;5.53;100.00;100500.34;2569806;30;139475;-39
2022/02/18 03:33:00;;;;;;;;;;;;;;;5.52;100.00;100501.38;2570167;30;140703;-39
2022/02/18 03:35:28;;;;;;;;;;;;;;;5.52;100.00;100498.66;2566182;30;138851;-39
2022/02/18 03:37:58;;;;;;;;;;;;;;;5.49;100.00;100481.97;2569738;30;139275;-39
2022/02/18 03:40:30;;;;;;;;;;;;;;;5.50;100.00;100484.47;2568987;30;137595;-39
2022/02/18 03:42:59;;;;;;;;;;;;;;;5.50;100.00;100479.06;2565988;30;140367;-39
2022/02/18 03:45:34;;;;;;;;;;;;;;;5.46;100.00;100466.94;2569561;30;138185;-39
2022/02/18 03:48:06;;;;;;;;;;;;;;;5.46;100.00;100461.53;2568744;30;139752;-39
2022/02/18 03:50:37;;;;;;;;;;;;;;;5.47;100.00;100461.34;2568716;30;138340;-39
2022/02/18 03:53:05;;;;;;;;;;;;;;;5.52;100.00;100458.06;2567655;30;140836;-39
2022/02/18 03:55:33;;;;;;;;;;;;;;;5.57;100.00;100458.38;2569539;30;137182;-39
2022/02/18 03:58:02;;;;;;;;;;;;;;;5.55;100.00;100457.69;2568500;30;138389;-39
2022/02/18 04:00:34;;;;;;;;;;;;;;;5.58;100.00;100457.34;2569257;30;137138;-39
2022/02/18 04:03:02;;;;;;;;;;;;;;;5.64;100.00;100458.44;2570494;30;139763;-39
2022/02/18 04:05:50;;;;;;;;;;;;;;;5.63;100.00;100451.34;2569049;30;137198;-39
2022/02/18 04:08:25;;;;;;;;;;;;;;;5.64;100.00;100450.31;2569215;30;139074;-39
2022/02/18 04:10:53;;;;;;;;;;;;;;;5.66;100.00;100444.72;2568143;30;138397;-39
2022/02/18 04:13:24;;;;;;;;;;;;;;;5.65;100.00;100433.03;2570542;30;140461;-39
2022/02/18 04:15:54;;;;;;;;;;;;;;;5.59;100.00;100431.94;2572203;30;139063;-39
2022/02/18 04:18:23;;;;;;;;;;;;;;;5.63;100.00;100436.97;2570593;30;139896;-41
2022/02/18 04:20:54;;;;;;;;;;;;;;;5.60;100.00;100425.50;2569951;30;139542;-39
2022/02/18 04:23:38;;;;;;;;;;;;;;;5.64;100.00;100425.13;2569548;30;139883;-39
2022/02/18 04:26:07;;;;;;;;;;;;;;;5.64;100.00;100414.28;2569163;30;138858;-39
2022/02/18 04:28:34;;;;;;;;;;;;;;;5.63;100.00;100409.91;2570866;30;137916;-39
2022/02/18 04:31:02;;;;;;;;;;;;;;;5.63;100.00;100396.38;2570675;30;137059;-39
2022/02/18 04:33:30;;;;;;;;;;;;;;;5.60;100.00;100400.28;2570666;30;138214;-39
2022/02/18 04:35:58;;;;;;;;;;;;;;;5.59;100.00;100391.34;2569801;30;137196;-39
2022/02/18 04:38:26;;;;;;;;;;;;;;;5.61;100.00;100377.59;2570081;30;138866;-39
2022/02/18 04:40:53;;;;;;;;;;;;;;;5.65;100.00;100370.78;2567878;30;136903;-39
2022/02/18 04:43:21;;;;;;;;;;;;;;;5.64;100.00;100361.00;2569646;30;138390;-39
2022/02/18 04:45:49;;;;;;;;;;;;;;;5.67;100.00;100343.53;2569336;30;137004;-39
2022/02/18 04:48:17;;;;;;;;;;;;;;;5.66;100.00;100334.56;2566276;30;140721;-39
2022/02/18 04:50:45;;;;;;;;;;;;;;;5.74;100.00;100325.50;2570236;30;138040;-39
2022/02/18 04:53:32;;;;;;;;;;;;;;;5.70;100.00;100310.66;2571784;30;138548;-39
2022/02/18 04:56:00;;;;;;;;;;;;;;;5.71;100.00;100317.75;2572183;30;137323;-39
2022/02/18 04:58:28;;;;;;;;;;;;;;;5.74;100.00;100306.53;2567045;30;138199;-39
2022/02/18 05:00:56;;;;;;;;;;;;;;;5.71;100.00;100290.69;2570022;30;138085;-39
2022/02/18 05:03:24;;;;;;;;;;;;;;;5.67;100.00;100290.22;2571528;30;138209;-39
2022/02/18 05:05:52;;;;;;;;;;;;;;;5.75;100.00;100278.44;2572102;30;136840;-39
2022/02/18 05:08:20;;;;;;;;;;;;;;;5.76;100.00;100278.25;2570595;30;138471;-39
2022/02/18 05:10:48;;;;;;;;;;;;;;;5.76;100.00;100280.97;2569085;30;137132;-39
2022/02/18 05:13:15;;;;;;;;;;;;;;;5.80;100.00;100281.41;2569282;30;138326;-39
2022/02/18 05:15:43;;;;;;;;;;;;;;;5.83;100.00;100275.59;2570838;30;137188;-39
2022/02/18 05:18:11;;;;;;;;;;;;;;;5.95;100.00;100256.13;2569305;30;138736;-39
2022/02/18 05:20:39;;;;;;;;;;;;;;;5.92;100.00;100257.34;2570127;30;136849;-39
2022/02/18 05:23:07;;;;;;;;;;;;;;;5.94;100.00;100252.56;2568829;30;138310;-39
2022/02/18 05:25:35;;;;;;;;;;;;;;;5.95;100.00;100231.75;2571098;30;137944;-39
2022/02/18 05:28:04;;;;;;;;;;;;;;;5.92;100.00;100224.03;2570352;30;138280;-39
2022/02/18 05:30:31;;;;;;;;;;;;;;;5.92;100.00;100194.25;2571733;30;137875;-39
2022/02/18 05:32:59;;;;;;;;;;;;;;;5.95;100.00;100185.72;2569651;30;137313;-39
2022/02/18 05:35:27;;;;;;;;;;;;;;;5.95;100.00;100172.19;2569678;30;136979;-39
2022/02/18 05:37:55;;;;;;;;;;;;;;;6.01;100.00;100174.97;2568382;30;138429;-39
2022/02/18 05:40:23;;;;;;;;;;;;;;;6.03;100.00;100158.50;2570651;30;137287;-38
2022/02/18 05:42:50;;;;;;;;;;;;;;;6.03;100.00;100175.59;2571361;30;138436;-39
2022/02/18 05:45:22;;;;;;;;;;;;;;;6.09;100.00;100165.81;2569963;30;137135;-39
2022/02/18 05:47:53;;;;;;;;;;;;;;;6.14;100.00;100154.41;2568555;30;137346;-39
2022/02/18 05:50:21;;;;;;;;;;;;;;;6.19;100.00;100146.50;2569091;30;137149;-39
2022/02/18 05:52:49;;;;;;;;;;;;;;;6.24;99.21;100145.91;2571157;30;138207;-39
2022/02/18 05:55:17;;;;;;;;;;;;;;;6.19;99.96;100141.94;2569944;30;137381;-39
2022/02/18 05:57:44;;;;;;;;;;;;;;;6.22;99.78;100139.88;2569398;30;139171;-39
2022/02/18 06:00:12;;;;;;;;;;;;;;;6.14;100.00;100143.56;2569264;30;137278;-39
2022/02/18 06:02:42;;;;;;;;;;;;;;;6.18;100.00;100136.72;2569293;30;137155;-39
2022/02/18 06:05:10;;;;;;;;;;;;;;;6.13;100.00;100131.91;2570713;30;136987;-39
2022/02/18 06:07:41;;;;;;;;;;;;;;;6.22;100.00;100118.19;2568866;30;138292;-39
2022/02/18 06:10:09;;;;;;;;;;;;;;;6.16;100.00;100109.00;2568529;30;136942;-39
2022/02/18 06:12:38;;;;;;;;;;;;;;;6.18;100.00;100109.63;2570632;30;138119;-39
2022/02/18 06:15:06;;;;;;;;;;;;;;;6.09;100.00;100100.81;2569329;30;137470;-39
2022/02/18 06:17:36;;;;;;;;;;;;;;;6.11;100.00;100097.94;2569070;30;138649;-39
2022/02/18 06:20:05;;;;;;;;;;;;;;;6.15;100.00;100091.94;2567934;30;137473;-38
2022/02/18 06:22:35;;;;;;;;;;;;;;;6.18;100.00;100085.25;2566857;30;139573;-39
2022/02/18 06:25:04;;;;;;;;;;;;;;;6.13;100.00;100076.91;2569459;30;137411;-39
2022/02/18 06:27:31;;;;;;;;;;;;;;;6.12;100.00;100073.38;2570641;30;138717;-39
2022/02/18 06:30:00;;;;;;;;;;;;;;;6.09;100.00;100060.22;2567065;30;137233;-39
2022/02/18 06:32:29;;;;;;;;;;;;;;;6.10;100.00;100048.38;2570777;30;138580;-38
2022/02/18 06:34:57;;;;;;;;;;;;;;;6.03;100.00;100044.78;2569502;30;137216;-39
2022/02/18 06:37:25;;;;;;;;;;;;;;;6.02;100.00;100035.81;2569281;30;138147;-38
2022/02/18 06:39:53;;;;;;;;;;;;;;;6.00;100.00;100034.31;2571677;30;137160;-39
2022/02/18 06:42:21;;;;;;;;;;;;;;;5.99;100.00;100025.38;2569935;30;138567;-39
2022/02/18 06:44:49;;;;;;;;;;;;;;;6.00;100.00;100016.22;2570937;30;137087;-39
2022/02/18 06:47:16;;;;;;;;;;;;;;;5.89;100.00;99995.97;2568934;30;138509;-39
2022/02/18 06:49:44;;;;;;;;;;;;;;;5.92;100.00;99975.75;2569049;30;137356;-39
2022/02/18 06:52:12;;;;;;;;;;;;;;;5.86;100.00;99973.84;2569355;30;138919;-39
2022/02/18 06:54:40;;;;;;;;;;;;;;;5.89;100.00;99955.34;2570850;30;137872;-39
2022/02/18 06:57:08;;;;;;;;;;;;;;;5.84;100.00;99955.13;2570450;30;138866;-38
2022/02/18 06:59:36;;;;;;;;;;;;;;;5.85;100.00;99951.38;2569777;30;137297;-39
2022/02/18 07:02:04;;;;;;;;;;;;;;;5.88;100.00;99950.13;2571048;30;137629;-39
2022/02/18 07:04:31;;;;;;;;;;;;;;;5.84;100.00;99952.41;2569294;30;137152;-38
2022/02/18 07:06:59;;;;;;;;;;;;;;;5.85;100.00;99945.13;2569805;30;138527;-39
2022/02/18 07:09:27;;;;;;;;;;;;;;;5.86;100.00;99936.81;2568630;30;137270;-39
2022/02/18 07:11:55;;;;;;;;;;;;;;;5.86;100.00;99941.38;2570414;30;137766;-39
2022/02/18 07:14:25;;;;;;;;;;;;;;;5.84;100.00;99928.06;2569916;30;137089;-39
2022/02/18 07:19:02;;;;;;;;;;;;;;;5.85;100.00;99902.66;2566926;30;155980;-40
2022/02/18 07:21:30;;;;;;;;;;;;;;;5.89;100.00;99901.19;2568065;30;136965;-40
2022/02/18 07:23:58;;;;;;;;;;;;;;;5.90;100.00;99900.16;2567298;30;138561;-40
2022/02/18 07:26:26;;;;;;;;;;;;;;;5.88;100.00;99895.97;2568831;30;137303;-40
2022/02/18 07:28:54;;;;;;;;;;;;;;;5.96;100.00;99895.78;2567811;30;139099;-40
2022/02/18 07:31:25;;;;;;;;;;;;;;;5.93;100.00;99879.13;2566713;30;137270;-41
2022/02/18 07:33:53;;;;;;;;;;;;;;;5.93;100.00;99866.41;2569002;30;138264;-40
2022/02/18 07:36:21;;;;;;;;;;;;;;;6.02;100.00;99853.53;2568166;30;137040;-40
2022/02/18 07:38:49;;;;;;;;;;;;;;;6.00;100.00;99848.31;2568405;30;137958;-40
2022/02/18 07:41:17;;;;;;;;;;;;;;;6.02;100.00;99845.41;2568184;30;137264;-40
2022/02/18 07:43:45;;;;;;;;;;;;;;;6.02;100.00;99843.56;2567859;30;137872;-40
2022/02/18 07:46:13;;;;;;;;;;;;;;;6.04;100.00;99824.38;2566880;30;137728;-40
2022/02/18 07:48:41;;;;;;;;;;;;;;;6.06;100.00;99825.00;2568903;30;138618;-40
2022/02/18 07:51:09;;;;;;;;;;;;;;;6.06;100.00;99818.78;2568420;30;137218;-40
2022/02/18 07:53:37;;;;;;;;;;;;;;;6.03;100.00;99811.88;2568301;30;137552;-40
2022/02/18 07:56:05;;;;;;;;;;;;;;;6.10;100.00;99801.91;2567479;30;137375;-40
2022/02/18 07:58:32;;;;;;;;;;;;;;;6.10;100.00;99782.97;2565918;30;137430;-40
2022/02/18 08:01:00;;;;;;;;;;;;;;;6.14;100.00;99776.06;2566853;30;137322;-40
2022/02/18 08:03:28;;;;;;;;;;;;;;;6.21;100.00;99783.34;2567850;30;138298;-40
2022/02/18 08:05:58;;;;;;;;;;;;;;;6.16;100.00;99781.25;2569633;30;137279;-40
2022/02/18 08:08:28;;;;;;;;;;;;;;;6.17;100.00;99774.81;2568585;30;138151;-40
2022/02/18 08:10:55;;;;;;;;;;;;;;;6.21;100.00;99770.63;2568494;30;137089;-40
2022/02/18 08:13:23;;;;;;;;;;;;;;;6.21;100.00;99759.78;2567296;30;138393;-40
2022/02/18 08:15:51;;;;;;;;;;;;;;;6.29;100.00;99761.47;2567889;30;136933;-40
2022/02/18 08:18:20;;;;;;;;;;;;;;;6.30;100.00;99745.00;2567804;30;139153;-40
2022/02/18 08:20:51;;;;;;;;;;;;;;;6.38;100.00;99733.13;2568488;30;137893;-40
2022/02/18 08:23:19;;;;;;;;;;;;;;;6.43;100.00;99736.03;2567774;30;138481;-41
2022/02/18 08:25:47;;;;;;;;;;;;;;;6.53;100.00;99735.59;2566750;30;137205;-40
2022/02/18 08:28:16;;;;;;;;;;;;;;;6.59;100.00;99736.59;2568806;30;138497;-40
2022/02/18 08:30:45;;;;;;;;;;;;;;;6.64;100.00;99731.41;2567345;30;137328;-40
2022/02/18 08:33:13;;;;;;;;;;;;;;;6.72;100.00;99733.84;2567927;30;138184;-40
2022/02/18 08:35:40;;;;;;;;;;;;;;;6.78;100.00;99718.63;2566778;30;137357;-40
2022/02/18 08:38:08;;;;;;;;;;;;;;;6.86;100.00;99706.69;2564632;38;137852;-40
2022/02/18 08:40:36;;;;;;;;;;;;;;;6.97;100.00;99708.72;2567959;30;137894;-40
2022/02/18 08:43:04;;;;;;;;;;;;;;;7.03;100.00;99694.28;2568652;30;138580;-40
2022/02/18 08:45:33;;;;;;;;;;;;;;;7.10;100.00;99696.13;2567976;30;137938;-40
2022/02/18 08:48:01;;;;;;;;;;;;;;;7.14;100.00;99681.94;2567433;30;138300;-40
2022/02/18 08:50:29;;;;;;;;;;;;;;;7.19;100.00;99675.88;2569151;30;137169;-41
2022/02/18 08:52:56;;;;;;;;;;;;;;;7.18;100.00;99676.91;2568429;30;138231;-40
2022/02/18 08:55:24;;;;;;;;;;;;;;;7.27;100.00;99672.03;2569669;30;137104;-40
2022/02/18 08:57:52;;;;;;;;;;;;;;;7.29;100.00;99661.78;2567385;30;138975;-40
2022/02/18 09:00:21;;;;;;;;;;;;;;;7.31;100.00;99665.97;2569014;30;137116;-40
2022/02/18 09:02:49;;;;;;;;;;;;;;;7.33;100.00;99658.44;2568921;30;138243;-41
2022/02/18 09:05:18;;;;;;;;;;;;;;;7.40;100.00;99657.53;2568044;30;137833;-41
2022/02/18 09:07:45;;;;;;;;;;;;;;;7.51;100.00;99653.28;2568759;30;139079;-40
2022/02/18 09:10:13;;;;;;;;;;;;;;;7.57;100.00;99649.72;2568056;30;138150;-40
2022/02/18 09:12:41;;;;;;;;;;;;;;;7.59;100.00;99640.28;2568530;30;137465;-40
2022/02/18 09:15:10;;;;;;;;;;;;;;;7.66;100.00;99633.94;2567461;30;137932;-40
2022/02/18 09:17:59;;;;;;;;;;;;;;;7.67;100.00;99627.47;2567802;30;136989;-40
2022/02/18 09:20:27;;;;;;;;;;;;;;;7.66;100.00;99610.38;2566613;30;138014;-40
2022/02/18 09:22:55;;;;;;;;;;;;;;;7.75;100.00;99605.47;2569048;30;138563;-40
2022/02/18 09:25:23;;;;;;;;;;;;;;;7.82;100.00;99605.41;2569198;30;138551;-40
2022/02/18 09:27:51;;;;;;;;;;;;;;;7.90;100.00;99607.84;2567697;30;139314;-40
2022/02/18 09:30:19;;;;;;;;;;;;;;;7.95;100.00;99605.28;2567590;30;137418;-40
2022/02/18 09:33:07;;;;;;;;;;;;;;;7.99;100.00;99606.47;2567574;30;138497;-40
2022/02/18 09:35:34;;;;;;;;;;;;;;;8.03;100.00;99604.16;2569127;30;137030;-40
2022/02/18 09:38:02;;;;;;;;;;;;;;;8.07;100.00;99580.91;2567782;30;138412;-40
2022/02/18 09:40:30;;;;;;;;;;;;;;;8.14;100.00;99586.28;2568031;30;137214;-40
2022/02/18 09:42:59;;;;;;;;;;;;;;;8.15;100.00;99575.16;2569326;30;138261;-40
2022/02/18 09:45:27;;;;;;;;;;;;;;;8.22;100.00;99561.50;2566763;30;137132;-40
2022/02/18 09:47:56;;;;;;;;;;;;;;;8.31;100.00;99562.03;2567843;30;139310;-40
2022/02/18 09:50:23;;;;;;;;;;;;;;;8.34;100.00;99548.78;2568469;30;138038;-41
2022/02/18 09:53:11;;;;;;;;;;;;;;;8.39;100.00;99545.41;2569401;30;138271;-40
2022/02/18 09:55:39;;;;;;;;;;;;;;;8.53;100.00;99535.22;2568353;30;137124;-40
2022/02/18 09:58:07;;;;;;;;;;;;;;;8.57;100.00;99528.25;2569020;30;138250;-40
2022/02/18 10:00:38;;;;;;;;;;;;;;;8.62;100.00;99524.84;2568577;30;136863;-40
2022/02/18 10:03:07;;;;;;;;;;;;;;;8.67;100.00;99522.25;2569000;30;137706;-40
2022/02/18 10:05:38;;;;;;;;;;;;;;;8.72;100.00;99518.84;2568300;30;137059;-40
2022/02/18 10:08:08;;;;;;;;;;;;;;;8.74;100.00;99511.28;2569163;30;138536;-40
2022/02/18 10:10:38;;;;;;;;;;;;;;;8.76;100.00;99507.28;2568092;30;136853;-40
2022/02/18 10:13:08;;;;;;;;;;;;;;;8.80;100.00;99509.53;2567995;30;138434;-41
2022/02/18 10:15:45;;;;;;;;;;;;;;;8.89;100.00;99505.41;2567465;30;136787;-40
2022/02/18 10:18:13;;;;;;;;;;;;;;;8.92;100.00;99513.09;2567164;30;137326;-41
2022/02/18 10:20:42;;;;;;;;;;;;;;;8.95;100.00;99511.81;2565924;30;137410;-40
2022/02/18 10:23:10;;;;;;;;;;;;;;;9.03;100.00;99506.84;2568448;30;139146;-41
2022/02/18 10:25:42;;;;;;;;;;;;;;;9.11;100.00;99488.53;2568561;30;137042;-40
2022/02/18 10:28:14;;;;;;;;;;;;;;;9.15;100.00;99485.09;2566099;30;139231;-40
2022/02/18 10:30:42;;;;;;;;;;;;;;;9.20;100.00;99466.16;2567567;30;136886;-40
2022/02/18 10:33:16;;;;;;;;;;;;;;;9.31;100.00;99464.50;2567937;30;138573;-40
2022/02/18 10:35:45;;;;;;;;;;;;;;;9.38;100.00;99458.13;2568397;30;137970;-41
2022/02/18 10:38:13;;;;;;;;;;;;;;;9.49;100.00;99462.72;2568335;30;138224;-40
2022/02/18 10:40:42;;;;;;;;;;;;;;;9.59;100.00;99454.78;2568446;30;136648;-40
2022/02/18 10:43:11;;;;;;;;;;;;;;;9.74;100.00;99451.53;2566028;30;138897;-41
2022/02/18 10:45:55;;;;;;;;;;;;;;;9.85;100.00;99446.28;2569055;30;138024;-41
2022/02/18 10:48:25;;;;;;;;;;;;;;;9.90;100.00;99438.22;2567943;30;138241;-40
2022/02/18 10:51:10;;;;;;;;;;;;;;;10.00;100.00;99443.03;2568281;30;137148;-40
2022/02/18 10:53:39;;;;;;;;;;;;;;;10.12;100.00;99432.09;2567168;30;138432;-40
2022/02/18 10:56:08;;;;;;;;;;;;;;;10.19;100.00;99439.06;2568257;30;137921;-41
2022/02/18 10:58:36;;;;;;;;;;;;;;;10.30;100.00;99422.88;2568414;30;137430;-41
2022/02/18 11:01:04;;;;;;;;;;;;;;;10.44;100.00;99402.47;2567528;30;137170;-40
2022/02/18 11:03:33;;;;;;;;;;;;;;;10.53;100.00;99410.22;2565614;30;138394;-41
2022/02/18 11:06:19;;;;;;;;;;;;;;;10.56;100.00;99407.00;2568213;30;138267;-41
2022/02/18 11:08:47;;;;;;;;;;;;;;;10.58;100.00;99407.59;2567457;30;137161;-40
2022/02/18 11:11:15;;;;;;;;;;;;;;;10.61;100.00;99398.94;2568500;30;137124;-40
2022/02/18 11:13:44;;;;;;;;;;;;;;;10.72;100.00;99376.19;2565917;30;137494;-40
2022/02/18 11:16:15;;;;;;;;;;;;;;;10.83;100.00;99379.91;2568526;30;137318;-40
2022/02/18 11:18:44;;;;;;;;;;;;;;;10.91;100.00;99356.84;2566968;30;139380;-40
2022/02/18 11:21:14;;;;;;;;;;;;;;;10.91;100.00;99348.66;2567811;30;137854;-40
2022/02/18 11:23:44;;;;;;;;;;;;;;;10.99;98.82;99344.63;2568682;30;138159;-41
2022/02/18 11:26:13;;;;;;;;;;;;;;;11.02;99.63;99335.97;2567063;30;137262;-40
2022/02/18 11:28:42;;;;;;;;;;;;;;;11.05;99.34;99335.47;2568454;30;138558;-40
2022/02/18 11:31:24;;;;;;;;;;;;;;;11.03;99.87;99323.97;2568029;30;138020;-40
2022/02/18 11:33:51;;;;;;;;;;;;;;;11.07;98.98;99314.22;2566383;30;137328;-40
2022/02/18 11:36:27;;;;;;;;;;;;;;;11.07;100.00;99295.09;2568341;30;136645;-40
2022/02/18 11:38:55;;;;;;;;;;;;;;;11.10;99.27;99285.56;2567208;30;138176;-40
2022/02/18 11:41:25;;;;;;;;;;;;;;;11.12;99.05;99273.31;2568041;30;137917;-40
2022/02/18 11:43:55;;;;;;;;;;;;;;;11.16;97.79;99265.47;2567033;30;137778;-40
2022/02/18 11:46:24;;;;;;;;;;;;;;;11.18;98.32;99260.56;2568585;30;137149;-41
2022/02/18 11:49:02;;;;;;;;;;;;;;;11.24;98.73;99248.63;2568773;30;137313;-41
2022/02/18 11:51:41;;;;;;;;;;;;;;;11.31;97.50;99253.91;2568202;30;137411;-40
2022/02/18 11:54:27;;;;;;;;;;;;;;;11.38;96.91;99249.06;2567382;30;138400;-40
2022/02/18 11:57:17;;;;;;;;;;;;;;;11.49;96.71;99244.53;2568375;30;137020;-40
2022/02/18 11:59:55;;;;;;;;;;;;;;;11.52;96.23;99238.56;2567770;30;139050;-40
2022/02/18 12:02:53;;;;;;;;;;;;;;;11.54;95.68;99236.38;2567875;30;137887;-40
2022/02/18 12:05:21;;;;;;;;;;;;;;;11.57;95.85;99224.94;2565399;30;138311;-40
2022/02/18 12:07:49;;;;;;;;;;;;;;;11.62;95.55;99222.25;2568630;30;137197;-40
2022/02/18 12:10:25;;;;;;;;;;;;;;;11.65;95.34;99199.88;2566239;30;139049;-40
2022/02/18 12:13:06;;;;;;;;;;;;;;;11.72;95.07;99193.41;2567836;30;136808;-40
2022/02/18 12:15:34;;;;;;;;;;;;;;;11.78;94.66;99186.88;2564677;30;138956;-40
2022/02/18 12:18:08;;;;;;;;;;;;;;;11.81;93.98;99186.34;2567559;30;137336;-40
2022/02/18 12:20:41;;;;;;;;;;;;;;;11.88;92.52;99162.34;2567336;30;138301;-41
2022/02/18 12:23:28;;;;;;;;;;;;;;;11.93;92.75;99153.38;2569197;30;137209;-41
2022/02/18 12:26:15;;;;;;;;;;;;;;;11.97;92.80;99161.91;2568253;30;138152;-40
2022/02/18 12:28:43;;;;;;;;;;;;;;;12.02;92.33;99145.56;2566609;30;137334;-40
2022/02/18 12:31:11;;;;;;;;;;;;;;;12.08;92.18;99144.50;2566972;30;137984;-40
2022/02/18 12:33:40;;;;;;;;;;;;;;;12.13;91.77;99133.59;2568189;30;138263;-41
2022/02/18 12:36:09;;;;;;;;;;;;;;;12.16;92.61;99137.72;2569658;30;137827;-41
2022/02/18 12:38:41;;;;;;;;;;;;;;;12.17;92.22;99122.97;2567965;30;136754;-41
2022/02/18 12:41:12;;;;;;;;;;;;;;;12.18;91.69;99114.47;2568820;30;138393;-40
2022/02/18 12:43:41;;;;;;;;;;;;;;;12.15;91.05;99119.66;2569049;30;137944;-41
2022/02/18 12:46:12;;;;;;;;;;;;;;;12.19;91.83;99110.66;2568862;30;138133;-40